sensor_id;sensor_type;location;lat;lon;timestamp;pressure;altitude;pressure_sealevel;temperature;humidity
32761;BME280;19126;47.472;7.850;2022-12-08T00:00:18;96228.63;;;-1.36;36.71
32761;BME280;19126;47.472;7.850;2022-12-08T00:02:45;96225.31;;;-1.38;37.15
32761;BME280;19126;47.472;7.850;2022-12-08T00:05:12;96221.81;;;-1.37;37.01
32761;BME280;19126;47.472;7.850;2022-12-08T00:07:59;96223.38;;;-1.35;37.06
32761;BME280;19126;47.472;7.850;2022-12-08T00:10:44;96216.66;;;-1.37;36.96
32761;BME280;19126;47.472;7.850;2022-12-08T00:13:11;96208.94;;;-1.37;37.34
32761;BME280;19126;47.472;7.850;2022-12-08T00:15:38;96213.06;;;-1.35;37.04
32761;BME280;19126;47.472;7.850;2022-12-08T00:18:06;96212.13;;;-1.34;37.00
32761;BME280;19126;47.472;7.850;2022-12-08T00:20:33;96208.72;;;-1.34;37.04
32761;BME280;19126;47.472;7.850;2022-12-08T00:23:02;96207.91;;;-1.35;37.76
32761;BME280;19126;47.472;7.850;2022-12-08T00:25:30;96204.41;;;-1.34;37.89
32761;BME280;19126;47.472;7.850;2022-12-08T00:27:58;96204.31;;;-1.32;37.63
32761;BME280;19126;47.472;7.850;2022-12-08T00:30:25;96203.38;;;-1.31;37.72
32761;BME280;19126;47.472;7.850;2022-12-08T00:32:52;96204.19;;;-1.30;37.86
32761;BME280;19126;47.472;7.850;2022-12-08T00:35:20;96200.56;;;-1.28;37.74
32761;BME280;19126;47.472;7.850;2022-12-08T00:37:47;96187.78;;;-1.29;37.74
32761;BME280;19126;47.472;7.850;2022-12-08T00:40:16;96188.84;;;-1.32;37.99
32761;BME280;19126;47.472;7.850;2022-12-08T00:42:43;96188.72;;;-1.30;38.66
32761;BME280;19126;47.472;7.850;2022-12-08T00:45:11;96190.59;;;-1.33;38.45
32761;BME280;19126;47.472;7.850;2022-12-08T00:47:38;96193.06;;;-1.31;38.43
32761;BME280;19126;47.472;7.850;2022-12-08T00:50:07;96195.75;;;-1.33;38.70
32761;BME280;19126;47.472;7.850;2022-12-08T00:52:35;96188.72;;;-1.30;38.81
32761;BME280;19126;47.472;7.850;2022-12-08T00:55:04;96185.34;;;-1.31;38.82
32761;BME280;19126;47.472;7.850;2022-12-08T00:57:33;96187.78;;;-1.29;39.42
32761;BME280;19126;47.472;7.850;2022-12-08T01:00:00;96188.63;;;-1.29;39.05
32761;BME280;19126;47.472;7.850;2022-12-08T01:02:27;96179.13;;;-1.28;38.69
32761;BME280;19126;47.472;7.850;2022-12-08T01:04:57;96182.41;;;-1.26;38.47
32761;BME280;19126;47.472;7.850;2022-12-08T01:07:24;96178.81;;;-1.24;38.40
32761;BME280;19126;47.472;7.850;2022-12-08T01:09:51;96182.19;;;-1.23;38.17
32761;BME280;19126;47.472;7.850;2022-12-08T01:12:19;96181.25;;;-1.22;37.87
32761;BME280;19126;47.472;7.850;2022-12-08T01:14:47;96183.13;;;-1.24;38.58
32761;BME280;19126;47.472;7.850;2022-12-08T01:17:15;96183.97;;;-1.24;38.07
32761;BME280;19126;47.472;7.850;2022-12-08T01:19:42;96185.47;;;-1.21;38.22
32761;BME280;19126;47.472;7.850;2022-12-08T01:22:09;96185.47;;;-1.21;37.75
32761;BME280;19126;47.472;7.850;2022-12-08T01:24:37;96184.53;;;-1.20;37.27
32761;BME280;19126;47.472;7.850;2022-12-08T01:27:04;96176.09;;;-1.22;37.44
32761;BME280;19126;47.472;7.850;2022-12-08T01:29:31;96180.31;;;-1.21;36.70
32761;BME280;19126;47.472;7.850;2022-12-08T01:32:01;96175.88;;;-1.19;37.03
32761;BME280;19126;47.472;7.850;2022-12-08T01:34:28;96176.72;;;-1.19;36.50
32761;BME280;19126;47.472;7.850;2022-12-08T01:36:55;96183.50;;;-1.17;36.37
32761;BME280;19126;47.472;7.850;2022-12-08T01:39:22;96180.00;;;-1.16;35.97
32761;BME280;19126;47.472;7.850;2022-12-08T01:41:50;96174.00;;;-1.17;35.57
32761;BME280;19126;47.472;7.850;2022-12-08T01:44:56;96174.94;;;-1.18;35.70
32761;BME280;19126;47.472;7.850;2022-12-08T01:47:33;96164.63;;;-1.18;35.63
32761;BME280;19126;47.472;7.850;2022-12-08T01:50:03;96164.53;;;-1.16;35.13
32761;BME280;19126;47.472;7.850;2022-12-08T01:52:37;96153.50;;;-1.19;35.18
32761;BME280;19126;47.472;7.850;2022-12-08T01:55:08;96157.13;;;-1.21;35.01
32761;BME280;19126;47.472;7.850;2022-12-08T01:57:42;96163.00;;;-1.19;35.46
32761;BME280;19126;47.472;7.850;2022-12-08T02:00:14;96148.47;;;-1.20;35.37
32761;BME280;19126;47.472;7.850;2022-12-08T02:02:53;96148.47;;;-1.20;34.29
32761;BME280;19126;47.472;7.850;2022-12-08T02:05:25;96150.00;;;-1.17;34.57
32761;BME280;19126;47.472;7.850;2022-12-08T02:07:54;96154.22;;;-1.16;34.58
32761;BME280;19126;47.472;7.850;2022-12-08T02:10:23;96151.53;;;-1.15;34.55
32761;BME280;19126;47.472;7.850;2022-12-08T02:12:54;96147.44;;;-1.17;34.03
32761;BME280;19126;47.472;7.850;2022-12-08T02:15:31;96138.75;;;-1.16;34.26
32761;BME280;19126;47.472;7.850;2022-12-08T02:18:16;96142.03;;;-1.14;33.86
32761;BME280;19126;47.472;7.850;2022-12-08T02:20:55;96140.28;;;-1.14;34.58
32761;BME280;19126;47.472;7.850;2022-12-08T02:23:35;96130.19;;;-1.17;34.37
32761;BME280;19126;47.472;7.850;2022-12-08T02:33:43;96119.66;;;-1.14;34.00
32761;BME280;19126;47.472;7.850;2022-12-08T02:36:25;96120.50;;;-1.13;33.95
32761;BME280;19126;47.472;7.850;2022-12-08T02:39:03;96116.16;;;-1.13;33.51
32761;BME280;19126;47.472;7.850;2022-12-08T02:41:48;96115.22;;;-1.12;33.08
32761;BME280;19126;47.472;7.850;2022-12-08T02:44:24;96110.06;;;-1.12;33.11
32761;BME280;19126;47.472;7.850;2022-12-08T02:46:59;96100.69;;;-1.13;33.36
32761;BME280;19126;47.472;7.850;2022-12-08T02:49:33;96101.63;;;-1.14;33.25
32761;BME280;19126;47.472;7.850;2022-12-08T02:52:06;96099.16;;;-1.15;33.01
32761;BME280;19126;47.472;7.850;2022-12-08T02:54:35;96095.19;;;-1.20;32.89
32761;BME280;19126;47.472;7.850;2022-12-08T02:57:22;96092.22;;;-1.26;33.60
32761;BME280;19126;47.472;7.850;2022-12-08T03:00:05;96084.09;;;-1.33;34.40
32761;BME280;19126;47.472;7.850;2022-12-08T03:02:44;96078.59;;;-1.40;34.89
32761;BME280;19126;47.472;7.850;2022-12-08T03:05:44;96078.44;;;-1.50;36.10
32761;BME280;19126;47.472;7.850;2022-12-08T03:08:21;96069.88;;;-1.62;36.83
32761;BME280;19126;47.472;7.850;2022-12-08T03:10:55;96075.47;;;-1.68;37.28
32761;BME280;19126;47.472;7.850;2022-12-08T03:13:28;96066.78;;;-1.78;38.13
32761;BME280;19126;47.472;7.850;2022-12-08T03:15:59;96072.38;;;-1.84;39.04
32761;BME280;19126;47.472;7.850;2022-12-08T03:18:30;96071.97;;;-1.91;39.41
32761;BME280;19126;47.472;7.850;2022-12-08T03:21:02;96068.09;;;-1.97;40.50
32761;BME280;19126;47.472;7.850;2022-12-08T03:23:30;96067.91;;;-2.07;41.40
32761;BME280;19126;47.472;7.850;2022-12-08T03:26:06;96063.13;;;-2.11;42.43
32761;BME280;19126;47.472;7.850;2022-12-08T03:28:35;96060.75;;;-2.14;42.93
32761;BME280;19126;47.472;7.850;2022-12-08T03:31:07;96046.78;;;-2.23;43.64
32761;BME280;19126;47.472;7.850;2022-12-08T03:33:40;96044.66;;;-2.29;44.40
32761;BME280;19126;47.472;7.850;2022-12-08T03:36:11;96050.13;;;-2.34;45.56
32761;BME280;19126;47.472;7.850;2022-12-08T03:38:42;96043.44;;;-2.37;45.38
32761;BME280;19126;47.472;7.850;2022-12-08T03:41:11;96046.94;;;-2.38;45.38
32761;BME280;19126;47.472;7.850;2022-12-08T03:43:46;96043.16;;;-2.45;46.74
32761;BME280;19126;47.472;7.850;2022-12-08T03:46:14;96041.72;;;-2.49;47.33
32761;BME280;19126;47.472;7.850;2022-12-08T03:48:41;96032.81;;;-2.56;48.51
32761;BME280;19126;47.472;7.850;2022-12-08T03:51:10;96035.00;;;-2.63;48.60
32761;BME280;19126;47.472;7.850;2022-12-08T03:53:38;96037.38;;;-2.73;49.63
32761;BME280;19126;47.472;7.850;2022-12-08T03:56:16;96035.31;;;-2.81;51.25
32761;BME280;19126;47.472;7.850;2022-12-08T03:58:46;96040.16;;;-2.89;52.07
32761;BME280;19126;47.472;7.850;2022-12-08T04:01:13;96038.72;;;-2.93;52.75
32761;BME280;19126;47.472;7.850;2022-12-08T04:03:40;96038.63;;;-3.04;54.05
32761;BME280;19126;47.472;7.850;2022-12-08T04:06:08;96037.53;;;-3.13;55.53
32761;BME280;19126;47.472;7.850;2022-12-08T04:08:37;96036.38;;;-3.22;56.09
32761;BME280;19126;47.472;7.850;2022-12-08T04:11:04;96039.38;;;-3.28;56.59
32761;BME280;19126;47.472;7.850;2022-12-08T04:13:32;96033.63;;;-3.32;56.95
32761;BME280;19126;47.472;7.850;2022-12-08T04:15:59;96027.66;;;-3.32;56.67
32761;BME280;19126;47.472;7.850;2022-12-08T04:18:27;96028.56;;;-3.33;55.97
32761;BME280;19126;47.472;7.850;2022-12-08T04:20:54;96028.69;;;-3.35;56.12
32761;BME280;19126;47.472;7.850;2022-12-08T04:23:22;96029.00;;;-3.40;56.40
32761;BME280;19126;47.472;7.850;2022-12-08T04:25:51;96020.78;;;-3.45;57.17
32761;BME280;19126;47.472;7.850;2022-12-08T04:28:19;96023.75;;;-3.51;58.34
32761;BME280;19126;47.472;7.850;2022-12-08T04:30:48;96017.81;;;-3.51;57.48
32761;BME280;19126;47.472;7.850;2022-12-08T04:33:16;96015.13;;;-3.50;56.61
32761;BME280;19126;47.472;7.850;2022-12-08T04:35:43;96017.88;;;-3.53;57.21
32761;BME280;19126;47.472;7.850;2022-12-08T04:38:11;96016.25;;;-3.54;56.59
32761;BME280;19126;47.472;7.850;2022-12-08T04:40:39;96020.47;;;-3.53;56.14
32761;BME280;19126;47.472;7.850;2022-12-08T04:43:07;96018.94;;;-3.56;55.48
32761;BME280;19126;47.472;7.850;2022-12-08T04:45:38;96022.50;;;-3.58;55.63
32761;BME280;19126;47.472;7.850;2022-12-08T04:48:06;96018.19;;;-3.71;57.56
32761;BME280;19126;47.472;7.850;2022-12-08T04:50:33;96016.53;;;-3.72;58.44
32761;BME280;19126;47.472;7.850;2022-12-08T04:53:01;96017.59;;;-3.74;57.70
32761;BME280;19126;47.472;7.850;2022-12-08T04:55:28;96025.28;;;-3.74;57.57
32761;BME280;19126;47.472;7.850;2022-12-08T04:57:55;96023.53;;;-3.74;57.42
32761;BME280;19126;47.472;7.850;2022-12-08T05:00:24;96024.34;;;-3.73;56.56
32761;BME280;19126;47.472;7.850;2022-12-08T05:02:52;96014.88;;;-3.86;57.69
32761;BME280;19126;47.472;7.850;2022-12-08T05:05:19;96022.78;;;-3.89;58.80
32761;BME280;19126;47.472;7.850;2022-12-08T05:07:46;96019.25;;;-4.01;59.24
32761;BME280;19126;47.472;7.850;2022-12-08T05:10:13;96023.66;;;-4.03;58.96
32761;BME280;19126;47.472;7.850;2022-12-08T05:12:41;96021.28;;;-4.06;59.40
32761;BME280;19126;47.472;7.850;2022-12-08T05:15:09;96011.84;;;-4.05;58.60
32761;BME280;19126;47.472;7.850;2022-12-08T05:17:37;96017.81;;;-4.05;57.64
32761;BME280;19126;47.472;7.850;2022-12-08T05:20:06;96012.03;;;-4.08;57.72
32761;BME280;19126;47.472;7.850;2022-12-08T05:22:34;96010.41;;;-4.09;58.20
32761;BME280;19126;47.472;7.850;2022-12-08T05:25:01;96012.34;;;-4.13;57.81
32761;BME280;19126;47.472;7.850;2022-12-08T05:27:28;96022.09;;;-4.18;58.76
32761;BME280;19126;47.472;7.850;2022-12-08T05:29:55;96018.16;;;-4.24;59.84
32761;BME280;19126;47.472;7.850;2022-12-08T05:32:23;96024.50;;;-4.30;59.75
32761;BME280;19126;47.472;7.850;2022-12-08T05:34:52;96024.69;;;-4.33;59.71
32761;BME280;19126;47.472;7.850;2022-12-08T05:37:19;96023.78;;;-4.32;58.76
32761;BME280;19126;47.472;7.850;2022-12-08T05:39:46;96021.22;;;-4.32;58.25
32761;BME280;19126;47.472;7.850;2022-12-08T05:42:13;96013.59;;;-4.33;57.73
32761;BME280;19126;47.472;7.850;2022-12-08T05:44:41;96011.44;;;-4.39;58.31
32761;BME280;19126;47.472;7.850;2022-12-08T05:47:08;96015.31;;;-4.47;59.42
32761;BME280;19126;47.472;7.850;2022-12-08T05:49:35;96017.13;;;-4.49;60.09
32761;BME280;19126;47.472;7.850;2022-12-08T05:52:05;96007.06;;;-4.52;59.77
32761;BME280;19126;47.472;7.850;2022-12-08T05:54:32;96008.72;;;-4.51;59.57
32761;BME280;19126;47.472;7.850;2022-12-08T05:56:59;96007.91;;;-4.51;58.41
32761;BME280;19126;47.472;7.850;2022-12-08T05:59:27;96008.72;;;-4.51;58.71
32761;BME280;19126;47.472;7.850;2022-12-08T06:01:54;96007.06;;;-4.52;58.81
32761;BME280;19126;47.472;7.850;2022-12-08T06:04:21;96008.72;;;-4.51;58.15
32761;BME280;19126;47.472;7.850;2022-12-08T06:06:49;96012.19;;;-4.52;58.00
32761;BME280;19126;47.472;7.850;2022-12-08T06:09:17;96012.19;;;-4.52;57.15
32761;BME280;19126;47.472;7.850;2022-12-08T06:11:44;96010.28;;;-4.48;56.76
32761;BME280;19126;47.472;7.850;2022-12-08T06:14:12;96011.75;;;-4.44;56.25
32761;BME280;19126;47.472;7.850;2022-12-08T06:16:39;96021.78;;;-4.41;55.31
32761;BME280;19126;47.472;7.850;2022-12-08T06:19:07;96012.16;;;-4.37;54.70
32761;BME280;19126;47.472;7.850;2022-12-08T06:21:34;96016.91;;;-4.31;53.59
32761;BME280;19126;47.472;7.850;2022-12-08T06:24:01;96017.44;;;-4.26;52.77
32761;BME280;19126;47.472;7.850;2022-12-08T06:26:30;96005.31;;;-4.24;52.09
32761;BME280;19126;47.472;7.850;2022-12-08T06:28:57;96025.84;;;-4.24;51.62
32761;BME280;19126;47.472;7.850;2022-12-08T06:31:26;96025.66;;;-4.21;51.95
32761;BME280;19126;47.472;7.850;2022-12-08T06:33:54;96015.19;;;-4.18;50.93
32761;BME280;19126;47.472;7.850;2022-12-08T06:36:25;96014.09;;;-4.14;49.81
32761;BME280;19126;47.472;7.850;2022-12-08T06:38:53;96018.09;;;-4.09;48.95
32761;BME280;19126;47.472;7.850;2022-12-08T06:41:20;96012.56;;;-4.03;48.19
32761;BME280;19126;47.472;7.850;2022-12-08T06:43:49;96012.28;;;-3.99;47.02
32761;BME280;19126;47.472;7.850;2022-12-08T06:46:18;96008.81;;;-3.98;46.51
32761;BME280;19126;47.472;7.850;2022-12-08T06:48:46;96011.16;;;-3.94;45.98
32761;BME280;19126;47.472;7.850;2022-12-08T06:51:17;96009.13;;;-3.89;45.22
32761;BME280;19126;47.472;7.850;2022-12-08T06:53:46;96017.47;;;-3.86;44.84
32761;BME280;19126;47.472;7.850;2022-12-08T06:56:14;96015.69;;;-3.85;44.05
32761;BME280;19126;47.472;7.850;2022-12-08T06:58:45;96015.63;;;-3.84;44.09
32761;BME280;19126;47.472;7.850;2022-12-08T07:01:14;96016.22;;;-3.80;42.69
32761;BME280;19126;47.472;7.850;2022-12-08T07:03:41;96015.09;;;-3.76;42.35
32761;BME280;19126;47.472;7.850;2022-12-08T07:06:15;96013.97;;;-3.72;41.80
32761;BME280;19126;47.472;7.850;2022-12-08T07:08:44;96011.31;;;-3.70;41.15
32761;BME280;19126;47.472;7.850;2022-12-08T07:11:12;96014.41;;;-3.65;40.76
32761;BME280;19126;47.472;7.850;2022-12-08T07:13:40;96001.47;;;-3.63;40.78
32761;BME280;19126;47.472;7.850;2022-12-08T07:16:09;96014.72;;;-3.57;40.08
32761;BME280;19126;47.472;7.850;2022-12-08T07:18:40;96009.47;;;-3.55;39.11
32761;BME280;19126;47.472;7.850;2022-12-08T07:21:11;96006.63;;;-3.50;38.81
32761;BME280;19126;47.472;7.850;2022-12-08T07:23:40;96015.63;;;-3.45;38.80
32761;BME280;19126;47.472;7.850;2022-12-08T07:26:10;96019.66;;;-3.41;37.87
32761;BME280;19126;47.472;7.850;2022-12-08T07:28:39;96015.94;;;-3.36;37.30
32761;BME280;19126;47.472;7.850;2022-12-08T07:31:15;96017.50;;;-3.34;37.20
32761;BME280;19126;47.472;7.850;2022-12-08T07:33:45;96017.19;;;-3.29;36.96
32761;BME280;19126;47.472;7.850;2022-12-08T07:36:12;96012.66;;;-3.26;36.52
32761;BME280;19126;47.472;7.850;2022-12-08T07:38:40;96016.75;;;-3.23;35.53
32761;BME280;19126;47.472;7.850;2022-12-08T07:41:12;96016.34;;;-3.17;34.77
32761;BME280;19126;47.472;7.850;2022-12-08T07:43:40;96008.44;;;-3.14;35.12
32761;BME280;19126;47.472;7.850;2022-12-08T07:46:10;96005.34;;;-3.06;34.44
32761;BME280;19126;47.472;7.850;2022-12-08T07:48:38;96005.84;;;-3.01;34.33
32761;BME280;19126;47.472;7.850;2022-12-08T07:51:09;96004.72;;;-2.97;33.04
32761;BME280;19126;47.472;7.850;2022-12-08T07:53:39;95996.88;;;-2.95;33.53
32761;BME280;19126;47.472;7.850;2022-12-08T07:56:07;95990.53;;;-2.89;33.61
32761;BME280;19126;47.472;7.850;2022-12-08T07:58:35;95985.16;;;-2.86;33.27
32761;BME280;19126;47.472;7.850;2022-12-08T08:01:03;95982.25;;;-2.82;32.87
32761;BME280;19126;47.472;7.850;2022-12-08T08:03:30;95987.91;;;-2.76;32.42
32761;BME280;19126;47.472;7.850;2022-12-08T08:06:02;95990.16;;;-2.72;32.79
32761;BME280;19126;47.472;7.850;2022-12-08T08:08:31;95987.16;;;-2.66;32.46
32761;BME280;19126;47.472;7.850;2022-12-08T08:10:58;95989.22;;;-2.58;32.00
32761;BME280;19126;47.472;7.850;2022-12-08T08:13:26;95984.66;;;-2.54;30.88
32761;BME280;19126;47.472;7.850;2022-12-08T08:15:53;95985.06;;;-2.47;30.91
32761;BME280;19126;47.472;7.850;2022-12-08T08:18:20;95982.13;;;-2.43;30.84
32761;BME280;19126;47.472;7.850;2022-12-08T08:20:49;95981.00;;;-2.39;30.50
32761;BME280;19126;47.472;7.850;2022-12-08T08:25:53;95979.63;;;-2.31;30.40
32761;BME280;19126;47.472;7.850;2022-12-08T08:28:20;95986.31;;;-2.29;30.72
32761;BME280;19126;47.472;7.850;2022-12-08T08:30:47;95973.94;;;-2.24;31.50
32761;BME280;19126;47.472;7.850;2022-12-08T08:33:15;95976.06;;;-2.17;30.85
32761;BME280;19126;47.472;7.850;2022-12-08T08:35:42;95981.69;;;-2.12;30.40
32761;BME280;19126;47.472;7.850;2022-12-08T08:38:09;95975.28;;;-2.07;30.54
32761;BME280;19126;47.472;7.850;2022-12-08T08:40:37;95972.16;;;-1.99;30.52
32761;BME280;19126;47.472;7.850;2022-12-08T08:43:06;95974.28;;;-1.93;30.68
32761;BME280;19126;47.472;7.850;2022-12-08T08:45:34;95971.84;;;-1.83;29.54
32761;BME280;19126;47.472;7.850;2022-12-08T08:48:01;95974.78;;;-1.76;29.67
32761;BME280;19126;47.472;7.850;2022-12-08T08:52:56;95975.38;;;-1.61;28.83
32761;BME280;19126;47.472;7.850;2022-12-08T08:55:24;95973.41;;;-1.57;29.59
32761;BME280;19126;47.472;7.850;2022-12-08T08:57:53;95977.97;;;-1.50;29.61
32761;BME280;19126;47.472;7.850;2022-12-08T09:00:22;95969.78;;;-1.43;29.54
32761;BME280;19126;47.472;7.850;2022-12-08T09:02:52;95961.13;;;-1.42;28.77
32761;BME280;19126;47.472;7.850;2022-12-08T09:05:19;95960.56;;;-1.35;29.52
32761;BME280;19126;47.472;7.850;2022-12-08T09:07:47;95962.19;;;-1.34;29.91
32761;BME280;19126;47.472;7.850;2022-12-08T09:10:14;95968.44;;;-1.25;30.98
32761;BME280;19126;47.472;7.850;2022-12-08T09:12:43;95963.75;;;-1.20;31.37
32761;BME280;19126;47.472;7.850;2022-12-08T09:15:10;95962.66;;;-1.17;32.42
32761;BME280;19126;47.472;7.850;2022-12-08T09:17:39;95963.03;;;-1.10;33.03
32761;BME280;19126;47.472;7.850;2022-12-08T09:20:07;95947.91;;;-1.04;33.21
32761;BME280;19126;47.472;7.850;2022-12-08T09:22:35;95949.06;;;-0.96;33.69
32761;BME280;19126;47.472;7.850;2022-12-08T09:25:04;95952.81;;;-0.89;33.94
32761;BME280;19126;47.472;7.850;2022-12-08T09:27:32;95946.22;;;-0.82;34.45
32761;BME280;19126;47.472;7.850;2022-12-08T09:29:59;95949.97;;;-0.75;34.50
32761;BME280;19126;47.472;7.850;2022-12-08T09:32:26;95952.75;;;-0.66;35.42
32761;BME280;19126;47.472;7.850;2022-12-08T09:34:55;95949.59;;;-0.58;36.77
32761;BME280;19126;47.472;7.850;2022-12-08T09:37:22;95952.03;;;-0.57;37.77
32761;BME280;19126;47.472;7.850;2022-12-08T09:39:49;95948.66;;;-0.57;40.58
32761;BME280;19126;47.472;7.850;2022-12-08T09:42:25;95945.00;;;-0.55;43.57
32761;BME280;19126;47.472;7.850;2022-12-08T09:44:59;95941.81;;;-0.47;43.30
32761;BME280;19126;47.472;7.850;2022-12-08T09:47:34;95944.16;;;-0.44;45.60
32761;BME280;19126;47.472;7.850;2022-12-08T09:50:11;95945.41;;;-0.38;48.59
32761;BME280;19126;47.472;7.850;2022-12-08T09:52:44;95937.88;;;-0.30;51.59
32761;BME280;19126;47.472;7.850;2022-12-08T09:55:19;95936.19;;;-0.20;53.18
32761;BME280;19126;47.472;7.850;2022-12-08T09:57:56;95931.81;;;-0.08;54.99
32761;BME280;19126;47.472;7.850;2022-12-08T10:00:26;95927.88;;;-0.02;57.36
32761;BME280;19126;47.472;7.850;2022-12-08T10:02:55;95927.16;;;0.07;59.69
32761;BME280;19126;47.472;7.850;2022-12-08T10:05:24;95927.47;;;0.14;62.33
32761;BME280;19126;47.472;7.850;2022-12-08T10:08:02;95929.19;;;0.25;64.61
32761;BME280;19126;47.472;7.850;2022-12-08T10:10:38;95919.13;;;0.32;67.00
32761;BME280;19126;47.472;7.850;2022-12-08T10:13:16;95920.41;;;0.37;71.42
32761;BME280;19126;47.472;7.850;2022-12-08T10:15:50;95923.03;;;0.47;73.68
32761;BME280;19126;47.472;7.850;2022-12-08T10:18:23;95915.78;;;0.41;80.19
32761;BME280;19126;47.472;7.850;2022-12-08T10:20:55;95909.81;;;0.40;83.23
32761;BME280;19126;47.472;7.850;2022-12-08T10:23:28;95906.31;;;0.51;84.56
32761;BME280;19126;47.472;7.850;2022-12-08T10:26:03;95887.69;;;0.57;85.95
32761;BME280;19126;47.472;7.850;2022-12-08T10:28:32;95895.88;;;0.63;90.36
32761;BME280;19126;47.472;7.850;2022-12-08T10:31:00;95899.72;;;0.68;93.56
32761;BME280;19126;47.472;7.850;2022-12-08T10:33:30;95891.88;;;0.80;95.86
32761;BME280;19126;47.472;7.850;2022-12-08T10:36:00;95883.44;;;0.87;98.08
32761;BME280;19126;47.472;7.850;2022-12-08T10:38:31;95883.06;;;0.92;100.00
32761;BME280;19126;47.472;7.850;2022-12-08T10:41:04;95867.28;;;1.05;100.00
32761;BME280;19126;47.472;7.850;2022-12-08T10:43:32;95858.59;;;1.26;100.00
32761;BME280;19126;47.472;7.850;2022-12-08T10:46:11;95857.00;;;1.35;100.00
32761;BME280;19126;47.472;7.850;2022-12-08T10:48:49;95858.91;;;1.42;100.00
32761;BME280;19126;47.472;7.850;2022-12-08T10:51:28;95850.88;;;1.45;100.00
32761;BME280;19126;47.472;7.850;2022-12-08T10:53:56;95852.25;;;1.50;100.00
32761;BME280;19126;47.472;7.850;2022-12-08T10:56:26;95844.88;;;1.55;100.00
32761;BME280;19126;47.472;7.850;2022-12-08T10:59:13;95840.63;;;1.64;100.00
32761;BME280;19126;47.472;7.850;2022-12-08T11:01:45;95842.94;;;1.77;100.00
32761;BME280;19126;47.472;7.850;2022-12-08T11:04:17;95836.22;;;1.94;100.00
32761;BME280;19126;47.472;7.850;2022-12-08T11:06:48;95843.31;;;1.92;100.00
32761;BME280;19126;47.472;7.850;2022-12-08T11:09:35;95842.09;;;1.96;100.00
32761;BME280;19126;47.472;7.850;2022-12-08T11:12:10;95838.81;;;2.03;100.00
32761;BME280;19126;47.472;7.850;2022-12-08T11:14:48;95827.38;;;1.96;100.00
32761;BME280;19126;47.472;7.850;2022-12-08T11:17:24;95822.72;;;2.00;100.00
32761;BME280;19126;47.472;7.850;2022-12-08T11:19:58;95821.47;;;2.04;100.00
32761;BME280;19126;47.472;7.850;2022-12-08T11:22:30;95825.00;;;2.13;100.00
32761;BME280;19126;47.472;7.850;2022-12-08T11:25:01;95820.09;;;2.10;100.00
32761;BME280;19126;47.472;7.850;2022-12-08T11:27:29;95812.69;;;2.25;100.00
32761;BME280;19126;47.472;7.850;2022-12-08T11:30:00;95808.47;;;2.24;100.00
32761;BME280;19126;47.472;7.850;2022-12-08T11:32:28;95801.16;;;2.37;100.00
32761;BME280;19126;47.472;7.850;2022-12-08T11:34:58;95802.19;;;2.54;100.00
32761;BME280;19126;47.472;7.850;2022-12-08T11:37:32;95804.00;;;2.72;100.00
32761;BME280;19126;47.472;7.850;2022-12-08T11:40:05;95807.38;;;2.82;100.00
32761;BME280;19126;47.472;7.850;2022-12-08T11:42:37;95797.06;;;2.90;100.00
32761;BME280;19126;47.472;7.850;2022-12-08T11:45:13;95794.72;;;2.97;100.00
32761;BME280;19126;47.472;7.850;2022-12-08T11:47:50;95788.78;;;3.05;100.00
32761;BME280;19126;47.472;7.850;2022-12-08T11:50:24;95781.97;;;3.04;100.00
32761;BME280;19126;47.472;7.850;2022-12-08T11:52:55;95779.75;;;3.09;100.00
32761;BME280;19126;47.472;7.850;2022-12-08T11:55:31;95775.69;;;3.06;100.00
32761;BME280;19126;47.472;7.850;2022-12-08T11:58:11;95783.75;;;3.03;100.00
32761;BME280;19126;47.472;7.850;2022-12-08T12:00:40;95780.34;;;3.03;100.00
32761;BME280;19126;47.472;7.850;2022-12-08T12:03:19;95788.28;;;3.01;100.00
32761;BME280;19126;47.472;7.850;2022-12-08T12:06:16;95785.38;;;3.04;100.00
32761;BME280;19126;47.472;7.850;2022-12-08T12:08:59;95774.91;;;3.14;100.00
32761;BME280;19126;47.472;7.850;2022-12-08T12:11:38;95777.97;;;3.10;100.00
32761;BME280;19126;47.472;7.850;2022-12-08T12:14:43;95769.38;;;3.09;95.64
32761;BME280;19126;47.472;7.850;2022-12-08T12:17:31;95764.03;;;3.11;97.65
32761;BME280;19126;47.472;7.850;2022-12-08T12:20:12;95769.72;;;3.14;99.11
32761;BME280;19126;47.472;7.850;2022-12-08T12:22:44;95767.31;;;3.13;99.95
32761;BME280;19126;47.472;7.850;2022-12-08T12:25:19;95763.13;;;3.02;100.00
32761;BME280;19126;47.472;7.850;2022-12-08T12:27:49;95756.78;;;2.96;100.00
32761;BME280;19126;47.472;7.850;2022-12-08T12:30:23;95748.25;;;2.86;100.00
32761;BME280;19126;47.472;7.850;2022-12-08T12:32:55;95755.78;;;2.79;100.00
32761;BME280;19126;47.472;7.850;2022-12-08T12:35:32;95755.78;;;2.79;100.00
32761;BME280;19126;47.472;7.850;2022-12-08T12:38:04;95753.66;;;2.74;100.00
32761;BME280;19126;47.472;7.850;2022-12-08T12:41:01;95747.34;;;2.77;100.00
32761;BME280;19126;47.472;7.850;2022-12-08T12:43:32;95744.06;;;2.75;100.00
32761;BME280;19126;47.472;7.850;2022-12-08T12:46:52;95746.44;;;2.68;100.00
32761;BME280;19126;47.472;7.850;2022-12-08T12:52:43;95753.28;;;2.69;100.00
32761;BME280;19126;47.472;7.850;2022-12-08T12:58:38;95749.50;;;2.54;100.00
32761;BME280;19126;47.472;7.850;2022-12-08T13:01:36;95741.22;;;2.50;100.00
32761;BME280;19126;47.472;7.850;2022-12-08T13:04:07;95736.47;;;2.45;100.00
32761;BME280;19126;47.472;7.850;2022-12-08T13:06:41;95740.19;;;2.43;100.00
32761;BME280;19126;47.472;7.850;2022-12-08T13:09:19;95744.97;;;2.38;100.00
32761;BME280;19126;47.472;7.850;2022-12-08T13:11:51;95740.09;;;2.34;100.00
32761;BME280;19126;47.472;7.850;2022-12-08T13:14:32;95728.38;;;2.30;100.00
32761;BME280;19126;47.472;7.850;2022-12-08T13:17:03;95728.78;;;2.26;100.00
32761;BME280;19126;47.472;7.850;2022-12-08T13:19:31;95733.59;;;2.20;100.00
32761;BME280;19126;47.472;7.850;2022-12-08T13:22:00;95733.38;;;2.14;100.00
32761;BME280;19126;47.472;7.850;2022-12-08T13:24:41;95739.50;;;2.13;100.00
32761;BME280;19126;47.472;7.850;2022-12-08T13:27:31;95738.09;;;2.18;100.00
32761;BME280;19126;47.472;7.850;2022-12-08T13:30:41;95729.25;;;2.21;100.00
32761;BME280;19126;47.472;7.850;2022-12-08T13:33:15;95730.34;;;2.18;100.00
32761;BME280;19126;47.472;7.850;2022-12-08T13:35:55;95727.50;;;2.12;100.00
32761;BME280;19126;47.472;7.850;2022-12-08T13:38:30;95719.66;;;2.03;99.64
32761;BME280;19126;47.472;7.850;2022-12-08T13:41:02;95713.91;;;2.00;98.63